Time;durP1;ratioP1;P1;durP2;ratioP2;P2;SDS_P1;SDS_P2;PMS_P1;PMS_P2;Temp;Humidity;BMP_temperature;BMP_pressure;BME280_temperature;BME280_humidity;BME280_pressure;Samples;Min_cycle;Max_cycle;Signal;HPM_P1;HPM_P2
2023/06/03 00:00:14;;;;;;;3.87;1.60;;;;;;;5.19;nan;101716.09;5076799;28;20043;-84
2023/06/03 00:02:41;;;;;;;2.27;1.57;;;;;;;5.30;nan;101713.69;5061973;28;21431;-82
2023/06/03 00:05:09;;;;;;;3.07;1.10;;;;;;;5.20;nan;101707.38;5072290;28;20044;-83
2023/06/03 00:07:36;;;;;;;2.00;1.50;;;;;;;5.18;nan;101716.94;5066383;28;20042;-83
2023/06/03 00:10:04;;;;;;;2.53;1.47;;;;;;;5.13;nan;101715.09;5083140;28;20047;-82
2023/06/03 00:12:31;;;;;;;2.60;1.20;;;;;;;5.04;nan;101708.84;5079808;28;20054;-81
2023/06/03 00:14:58;;;;;;;1.67;1.10;;;;;;;4.97;nan;101713.94;5068646;28;20539;-84
2023/06/03 00:17:27;;;;;;;3.63;1.27;;;;;;;4.94;nan;101701.66;5068310;28;20038;-81
2023/06/03 00:19:54;;;;;;;3.17;1.57;;;;;;;4.89;nan;101705.94;5075464;28;20045;-83
2023/06/03 00:22:21;;;;;;;2.87;1.50;;;;;;;4.75;nan;101708.28;5046894;28;20040;-80
2023/06/03 00:24:49;;;;;;;2.07;1.47;;;;;;;4.69;nan;101718.59;5071699;28;20480;-81
2023/06/03 00:27:16;;;;;;;1.90;1.10;;;;;;;4.70;nan;101716.88;5082407;28;20038;-80
2023/06/03 00:29:43;;;;;;;3.57;1.30;;;;;;;4.63;nan;101712.41;5090796;28;20046;-84
2023/06/03 00:32:10;;;;;;;1.60;1.10;;;;;;;4.55;nan;101722.69;5069842;28;20403;-82
2023/06/03 00:34:37;;;;;;;2.53;1.60;;;;;;;4.45;nan;101718.97;5070457;28;20056;-81
2023/06/03 00:37:04;;;;;;;2.37;1.37;;;;;;;4.39;nan;101713.63;5083694;28;20028;-83
2023/06/03 00:39:31;;;;;;;2.07;1.23;;;;;;;4.40;nan;101723.25;5080462;28;20040;-82
2023/06/03 00:41:58;;;;;;;2.53;1.30;;;;;;;4.40;nan;101728.47;5069082;28;20038;-82
2023/06/03 00:44:25;;;;;;;2.50;1.17;;;;;;;4.34;nan;101717.88;5078595;28;20066;-82
2023/06/03 00:46:52;;;;;;;2.07;1.40;;;;;;;4.36;nan;101730.97;5101174;28;20392;-82
2023/06/03 00:49:19;;;;;;;2.63;1.40;;;;;;;4.32;nan;101730.03;5072944;28;20043;-82
2023/06/03 00:51:46;;;;;;;2.43;1.20;;;;;;;4.33;nan;101731.81;5068390;28;20477;-82
2023/06/03 00:54:15;;;;;;;2.80;1.10;;;;;;;4.37;nan;101733.66;5088913;28;20496;-81
2023/06/03 00:56:43;;;;;;;2.17;1.07;;;;;;;4.31;nan;101728.28;5055061;28;20055;-82
2023/06/03 00:59:13;;;;;;;2.50;1.30;;;;;;;4.12;nan;101744.38;5068882;28;20036;-82
2023/06/03 01:01:42;;;;;;;2.93;1.70;;;;;;;4.03;nan;101734.59;5087102;28;20040;-82
2023/06/03 01:04:10;;;;;;;1.57;1.30;;;;;;;4.02;nan;101740.69;5083873;28;20042;-81
2023/06/03 01:06:46;;;;;;;1.90;1.50;;;;;;;4.01;nan;101740.66;5097847;28;20110;-82
2023/06/03 01:09:13;;;;;;;2.07;1.60;;;;;;;4.01;nan;101735.41;5113774;28;20122;-80
2023/06/03 01:11:44;;;;;;;3.50;1.70;;;;;;;3.95;nan;101739.69;5090183;28;20588;-82
2023/06/03 01:14:18;;;;;;;1.90;1.10;;;;;;;3.88;nan;101748.22;5059344;28;20115;-81
2023/06/03 01:16:48;;;;;;;2.20;1.10;;;;;;;3.85;nan;101740.28;5061976;28;20039;-81
2023/06/03 01:19:32;;;;;;;2.40;1.43;;;;;;;3.88;nan;101740.38;5055546;28;20118;-81
2023/06/03 01:22:02;;;;;;;2.73;1.40;;;;;;;3.87;nan;101740.34;5085814;28;20463;-82
2023/06/03 01:24:32;;;;;;;3.47;2.00;;;;;;;3.70;nan;101741.63;5080790;28;20038;-81
2023/06/03 01:26:59;;;;;;;1.83;1.10;;;;;;;3.59;nan;101737.03;5069741;28;20032;-82
2023/06/03 01:29:26;;;;;;;2.33;1.43;;;;;;;3.52;nan;101742.94;5086747;28;20059;-81
2023/06/03 01:31:55;;;;;;;1.87;1.17;;;;;;;3.57;nan;101743.06;5060055;28;20071;-82
2023/06/03 01:34:23;;;;;;;2.17;1.70;;;;;;;3.57;nan;101745.69;5070790;28;20039;-81
2023/06/03 01:36:50;;;;;;;3.20;1.37;;;;;;;3.61;nan;101750.13;5067611;28;20035;-82
2023/06/03 01:39:18;;;;;;;2.70;1.67;;;;;;;3.62;nan;101744.06;5062975;28;20040;-81
2023/06/03 01:41:45;;;;;;;2.93;1.40;;;;;;;3.56;nan;101743.91;5058336;28;20516;-81
2023/06/03 01:44:12;;;;;;;2.00;1.30;;;;;;;3.49;nan;101745.47;5084668;28;20040;-81
2023/06/03 01:46:39;;;;;;;2.27;1.40;;;;;;;3.54;nan;101745.63;5075831;28;20054;-82
2023/06/03 01:49:07;;;;;;;2.37;1.37;;;;;;;3.41;nan;101740.91;5074424;28;20488;-80
2023/06/03 01:51:35;;;;;;;4.00;1.30;;;;;;;3.16;nan;101740.25;5066110;28;20105;-82
2023/06/03 01:54:02;;;;;;;2.83;1.40;;;;;;;3.11;nan;101747.06;5074737;28;20497;-81
2023/06/03 01:56:29;;;;;;;3.37;1.40;;;;;;;3.30;nan;101744.13;5062274;28;20527;-81
2023/06/03 01:58:56;;;;;;;3.43;1.40;;;;;;;3.29;nan;101744.09;5077525;28;20356;-81
2023/06/03 02:01:24;;;;;;;3.60;1.53;;;;;;;3.10;nan;101734.84;5073476;28;20480;-81
2023/06/03 02:03:51;;;;;;;1.87;1.10;;;;;;;2.68;nan;101745.84;5083505;28;20539;-82
2023/06/03 02:06:18;;;;;;;2.33;1.53;;;;;;;2.81;nan;101748.00;5089412;28;20035;-81
2023/06/03 02:08:45;;;;;;;1.80;1.20;;;;;;;3.03;nan;101753.84;5081364;28;20028;-81
2023/06/03 02:11:12;;;;;;;3.10;1.30;;;;;;;3.02;nan;101752.03;5089401;28;20044;-81
2023/06/03 02:13:39;;;;;;;1.77;1.10;;;;;;;2.95;nan;101750.13;5065595;28;20046;-81
2023/06/03 02:16:06;;;;;;;2.07;1.20;;;;;;;2.83;nan;101753.25;5082978;28;20039;-81
2023/06/03 02:18:34;;;;;;;1.90;1.30;;;;;;;2.81;nan;101749.72;5087580;28;20040;-81
2023/06/03 02:21:02;;;;;;;3.40;1.40;;;;;;;2.87;nan;101757.72;5058983;28;20142;-82
2023/06/03 02:23:29;;;;;;;2.03;1.30;;;;;;;2.91;nan;101743.03;5053607;28;20539;-81
2023/06/03 02:25:57;;;;;;;2.43;1.30;;;;;;;2.68;nan;101750.19;5083418;28;20047;-83
2023/06/03 02:28:24;;;;;;;2.67;1.63;;;;;;;2.67;nan;101756.25;5063176;28;20035;-82
2023/06/03 02:30:51;;;;;;;3.73;1.40;;;;;;;2.53;nan;101761.97;5091653;28;20035;-81
2023/06/03 02:33:18;;;;;;;3.37;1.33;;;;;;;2.41;nan;101763.31;5074775;28;20042;-83
2023/06/03 02:35:45;;;;;;;2.73;1.20;;;;;;;2.43;nan;101759.91;5074391;28;20040;-81
2023/06/03 02:38:13;;;;;;;2.50;1.70;;;;;;;2.50;nan;101758.38;5072805;28;20322;-81
2023/06/03 02:40:40;;;;;;;3.17;1.30;;;;;;;2.39;nan;101762.38;5090923;28;20046;-83
2023/06/03 02:43:07;;;;;;;2.23;1.30;;;;;;;2.42;nan;101767.69;5049398;28;20131;-80
2023/06/03 02:45:35;;;;;;;2.23;1.30;;;;;;;2.51;nan;101763.63;5051606;28;20047;-82
2023/06/03 02:48:01;;;;;;;2.70;1.30;;;;;;;2.42;nan;101762.47;5071722;28;20070;-80
2023/06/03 02:50:28;;;;;;;1.90;1.60;;;;;;;2.47;nan;101768.72;5092418;28;20035;-82
2023/06/03 02:52:56;;;;;;;4.07;1.67;;;;;;;2.48;nan;101762.66;5107659;28;20522;-79
2023/06/03 02:55:27;;;;;;;2.30;1.23;;;;;;;2.43;nan;101772.06;5078476;28;20119;-80
2023/06/03 02:57:54;;;;;;;3.70;1.67;;;;;;;2.49;nan;101775.75;5065617;28;20396;-81
2023/06/03 03:00:21;;;;;;;2.33;1.40;;;;;;;2.42;nan;101771.19;5092516;28;20038;-82
2023/06/03 03:02:48;;;;;;;2.77;1.40;;;;;;;2.26;nan;101776.75;5070842;28;20040;-79
2023/06/03 03:05:16;;;;;;;4.07;1.40;;;;;;;2.19;nan;101780.91;5085781;28;20032;-82
2023/06/03 03:07:43;;;;;;;2.47;1.37;;;;;;;2.26;nan;101777.63;5079937;28;20032;-82
2023/06/03 03:10:10;;;;;;;1.37;1.20;;;;;;;2.30;nan;101775.16;5070426;28;20036;-81
2023/06/03 03:12:37;;;;;;;3.40;1.33;;;;;;;2.33;nan;101777.84;5071406;28;20039;-82
2023/06/03 03:15:05;;;;;;;2.27;1.20;;;;;;;2.33;nan;101776.13;5073182;28;20036;-81
2023/06/03 03:17:32;;;;;;;3.23;1.60;;;;;;;2.30;nan;101777.75;5074254;28;20051;-82
2023/06/03 03:19:59;;;;;;;10.83;2.53;;;;;;;2.39;nan;101780.66;5069765;28;20045;-81
2023/06/03 03:22:27;;;;;;;8.77;1.90;;;;;;;2.25;nan;101781.09;5068679;28;20040;-81
2023/06/03 03:24:57;;;;;;;7.60;2.70;;;;;;;2.36;nan;101777.94;5064801;28;20032;-80
2023/06/03 03:27:25;;;;;;;10.37;1.90;;;;;;;2.30;nan;101789.06;5065889;28;20036;-81
2023/06/03 03:29:54;;;;;;;11.10;2.40;;;;;;;2.36;nan;101791.88;5070075;28;20043;-80
2023/06/03 03:32:21;;;;;;;9.17;2.87;;;;;;;2.41;nan;101785.06;5071307;28;20057;-82
2023/06/03 03:35:10;;;;;;;7.20;2.00;;;;;;;2.38;nan;101784.09;5085271;28;20214;-82
2023/06/03 03:37:37;;;;;;;4.67;1.50;;;;;;;2.33;nan;101783.94;5088431;28;20404;-81
2023/06/03 03:40:11;;;;;;;5.40;2.07;;;;;;;2.25;nan;101788.03;5081512;28;20036;-82
2023/06/03 03:42:38;;;;;;;4.90;1.80;;;;;;;2.31;nan;101789.94;5081955;28;20039;-82
2023/06/03 03:45:10;;;;;;;5.07;1.80;;;;;;;2.37;nan;101790.16;5080646;28;20052;-81
2023/06/03 03:47:37;;;;;;;10.13;2.03;;;;;;;2.36;nan;101784.06;5059989;28;20040;-81
2023/06/03 03:50:32;;;;;;;8.67;2.00;;;;;;;2.26;nan;101795.00;5064829;28;20043;-81
2023/06/03 03:53:02;;;;;;;14.13;4.07;;;;;;;2.28;nan;101800.31;5062054;28;20058;-82
2023/06/03 03:55:29;;;;;;;24.20;3.83;;;;;;;2.39;nan;101793.69;5070523;28;20040;-81
2023/06/03 03:58:02;;;;;;;18.77;4.97;;;;;;;2.39;nan;101791.06;5078702;28;20051;-81
2023/06/03 04:00:30;;;;;;;28.77;4.70;;;;;;;2.38;nan;101797.13;5048709;28;20054;-81
2023/06/03 04:02:57;;;;;;;14.90;3.00;;;;;;;2.41;nan;101794.59;5044129;28;20056;-82
2023/06/03 04:05:25;;;;;;;16.00;3.00;;;;;;;2.50;nan;101798.38;5070787;28;20042;-82
2023/06/03 04:07:53;;;;;;;9.43;2.40;;;;;;;2.54;nan;101795.03;5060966;28;20032;-80
2023/06/03 04:10:22;;;;;;;16.50;2.73;;;;;;;2.54;nan;101796.78;5084387;28;20049;-81
2023/06/03 04:12:48;;;;;;;9.27;2.30;;;;;;;2.62;nan;101799.63;5068326;28;20046;-82
2023/06/03 04:15:24;;;;;;;5.13;2.80;;;;;;;2.67;nan;101798.88;5085285;28;20046;-82
2023/06/03 04:17:51;;;;;;;4.97;1.80;;;;;;;2.65;nan;101805.78;5063774;28;20044;-81
2023/06/03 04:20:56;;;;;;;6.23;2.33;;;;;;;2.80;nan;101801.03;5056485;28;20036;-82
2023/06/03 04:23:23;;;;;;;4.28;1.45;;;;;;;2.86;nan;101809.88;5044859;28;20047;-82
2023/06/03 04:25:50;;;;;;;7.03;2.00;;;;;;;2.94;nan;101800.53;5057553;28;20072;-82
2023/06/03 04:28:18;;;;;;;4.10;1.60;;;;;;;3.05;nan;101809.56;5065632;28;20039;-82
2023/06/03 04:30:45;;;;;;;2.87;1.43;;;;;;;3.21;nan;101805.69;5085039;28;20401;-81
2023/06/03 04:33:12;;;;;;;2.80;1.20;;;;;;;3.28;nan;101808.50;5062850;28;20047;-81
2023/06/03 04:35:39;;;;;;;3.90;1.53;;;;;;;3.36;nan;101811.28;5065670;28;20039;-81
2023/06/03 04:38:06;;;;;;;4.87;1.57;;;;;;;3.57;nan;101805.78;5063786;28;20036;-81
2023/06/03 04:40:33;;;;;;;2.40;1.40;;;;;;;3.64;nan;101808.59;5083072;28;20043;-81
2023/06/03 04:43:07;;;;;;;6.83;1.50;;;;;;;3.73;nan;101812.28;5084534;28;20055;-80
2023/06/03 04:45:34;;;;;;;3.33;1.10;;;;;;;3.80;nan;101802.03;5081102;28;20040;-81
2023/06/03 04:48:02;;;;;;;4.77;1.60;;;;;;;3.85;nan;101805.63;5079707;28;20043;-81
2023/06/03 04:50:34;;;;;;;8.33;1.50;;;;;;;4.04;nan;101798.25;5076439;28;20045;-80
2023/06/03 04:53:02;;;;;;;3.70;1.90;;;;;;;4.29;nan;101799.69;5090376;28;20389;-82
2023/06/03 04:55:30;;;;;;;3.43;1.50;;;;;;;4.42;nan;101799.16;5063717;28;20509;-81
2023/06/03 04:58:00;;;;;;;3.77;1.60;;;;;;;4.78;nan;101805.19;5065820;28;20074;-81
2023/06/03 05:00:27;;;;;;;3.47;1.30;;;;;;;5.22;nan;101806.97;5063077;28;21048;-81
2023/06/03 05:02:59;;;;;;;3.10;1.80;;;;;;;5.48;nan;101810.97;5079528;28;20039;-81
2023/06/03 05:05:27;;;;;;;2.50;1.30;;;;;;;5.65;nan;101803.44;5062015;28;20036;-82
2023/06/03 05:07:54;;;;;;;4.73;1.57;;;;;;;5.75;nan;101797.47;5076880;28;20036;-81
2023/06/03 05:10:21;;;;;;;3.40;1.50;;;;;;;5.97;nan;101796.16;5061041;28;20048;-80
2023/06/03 05:12:49;;;;;;;2.23;1.23;;;;;;;6.10;nan;101795.47;5078664;28;20306;-81
2023/06/03 05:15:16;;;;;;;1.57;1.10;;;;;;;6.19;nan;101789.47;5071658;28;20047;-81
2023/06/03 05:17:43;;;;;;;2.30;1.40;;;;;;;6.36;nan;101789.75;5058937;28;20043;-82
2023/06/03 05:20:10;;;;;;;2.40;1.30;;;;;;;6.57;nan;101782.19;5061341;28;20028;-81
2023/06/03 05:22:37;;;;;;;2.77;1.50;;;;;;;6.70;nan;101773.59;5066655;28;20386;-81
2023/06/03 05:25:05;;;;;;;2.13;1.20;;;;;;;6.83;nan;101782.53;5065947;28;20062;-83
2023/06/03 05:27:32;;;;;;;5.77;1.97;;;;;;;7.22;nan;101774.22;5059333;28;20035;-81
2023/06/03 05:29:59;;;;;;;8.03;1.80;;;;;;;7.43;nan;101780.59;5062288;28;20535;-81
2023/06/03 05:32:26;;;;;;;2.50;1.63;;;;;;;7.88;nan;101780.13;5064744;28;20035;-81
2023/06/03 05:34:53;;;;;;;2.40;1.30;;;;;;;8.35;nan;101772.63;5064042;28;20066;-81
2023/06/03 05:37:21;;;;;;;3.60;1.33;;;;;;;9.97;nan;101770.50;5078779;28;20060;-80
2023/06/03 05:39:48;;;;;;;2.08;1.13;;;;;;;11.86;nan;101763.59;5071235;28;20030;-80
2023/06/03 05:42:15;;;;;;;2.47;1.08;;;;;;;13.90;nan;101754.91;5078512;28;20028;-82
2023/06/03 05:44:42;;;;;;;2.55;1.20;;;;;;;15.93;nan;101752.47;5084886;28;20031;-81
2023/06/03 05:47:09;;;;;;;2.25;1.23;;;;;;;17.14;nan;101756.22;5062331;28;20048;-82
2023/06/03 05:49:36;;;;;;;1.98;1.10;;;;;;;18.32;nan;101752.38;5059437;28;20032;-81
2023/06/03 05:52:03;;;;;;;2.20;1.10;;;;;;;19.49;nan;101733.69;5050893;28;20040;-82
2023/06/03 05:54:30;;;;;;;1.88;1.20;;;;;;;19.33;nan;101748.63;5101878;28;20481;-81
2023/06/03 05:56:58;;;;;;;1.38;1.10;;;;;;;17.78;nan;101750.69;5063321;28;20118;-81
2023/06/03 05:59:25;;;;;;;1.80;1.10;;;;;;;18.77;nan;101746.34;5076462;28;20421;-83
2023/06/03 06:01:52;;;;;;;2.53;1.50;;;;;;;19.88;nan;101751.78;5082824;28;20054;-81
2023/06/03 06:04:19;;;;;;;1.98;1.20;;;;;;;20.03;nan;101747.59;5074106;28;20160;-82
2023/06/03 06:06:46;;;;;;;1.77;1.10;;;;;;;19.23;nan;101757.97;5079118;28;20046;-82
2023/06/03 06:09:13;;;;;;;2.67;1.30;;;;;;;17.34;nan;101760.97;5082217;28;20144;-82
2023/06/03 06:11:42;;;;;;;2.47;1.40;;;;;;;16.41;nan;101763.66;5063602;28;20094;-81
2023/06/03 06:14:10;;;;;;;4.07;1.50;;;;;;;16.19;nan;101763.34;5052970;28;20036;-85
2023/06/03 06:16:37;;;;;;;1.25;1.15;;;;;;;16.11;nan;101768.00;5084724;28;20032;-82
2023/06/03 06:19:04;;;;;;;2.40;1.27;;;;;;;15.37;nan;101770.63;5063090;28;20046;-81
2023/06/03 06:21:31;;;;;;;1.63;1.10;;;;;;;15.09;nan;101765.06;5061349;28;20038;-82
2023/06/03 06:23:59;;;;;;;5.82;1.52;;;;;;;15.18;nan;101764.84;5065623;28;20046;-83
2023/06/03 06:26:29;;;;;;;4.13;1.90;;;;;;;15.43;nan;101765.19;5080978;28;20493;-83
2023/06/03 06:28:55;;;;;;;1.77;1.00;;;;;;;15.82;nan;101766.06;5077858;28;20040;-83
2023/06/03 06:31:22;;;;;;;3.72;1.35;;;;;;;15.96;nan;101773.69;5100451;28;20031;-82
2023/06/03 06:33:51;;;;;;;2.80;1.33;;;;;;;14.70;nan;101766.75;5080104;28;20036;-82
2023/06/03 06:36:42;;;;;;;2.55;1.40;;;;;;;15.32;nan;101768.09;5070222;28;20266;-81
2023/06/03 06:39:39;;;;;;;2.42;1.13;;;;;;;15.33;nan;101771.63;5088331;28;20036;-83
2023/06/03 06:42:33;;;;;;;3.45;1.30;;;;;;;15.80;nan;101770.53;5078843;28;20039;-82
2023/06/03 06:45:25;;;;;;;4.50;1.40;;;;;;;15.82;nan;101771.41;5071128;28;20143;-83
2023/06/03 06:48:03;;;;;;;3.85;1.30;;;;;;;15.91;nan;101759.63;5056746;28;20169;-83
2023/06/03 06:50:53;;;;;;;3.50;1.50;;;;;;;16.18;nan;101769.59;5086548;28;20041;-82
2023/06/03 06:53:22;;;;;;;3.75;1.15;;;;;;;14.88;nan;101769.94;5110851;28;20337;-83
2023/06/03 06:55:54;;;;;;;2.15;1.45;;;;;;;15.26;nan;101770.88;5082530;28;20218;-81
2023/06/03 06:58:22;;;;;;;1.95;1.35;;;;;;;15.42;nan;101766.97;5068638;28;20047;-82
2023/06/03 07:00:49;;;;;;;2.80;1.10;;;;;;;15.35;nan;101756.50;5070007;28;20304;-80
2023/06/03 07:03:18;;;;;;;2.28;1.25;;;;;;;15.73;nan;101771.63;5070903;28;20043;-82
2023/06/03 07:05:46;;;;;;;2.10;1.10;;;;;;;15.34;nan;101776.03;5067265;28;20044;-81
2023/06/03 07:08:16;;;;;;;4.05;1.30;;;;;;;15.14;nan;101774.72;5084431;28;20045;-85
2023/06/03 07:10:43;;;;;;;4.13;1.40;;;;;;;15.38;nan;101770.59;5059454;28;20029;-84
2023/06/03 07:13:13;;;;;;;1.55;1.00;;;;;;;16.11;nan;101773.31;5081664;28;20062;-83
2023/06/03 07:15:39;;;;;;;2.67;1.30;;;;;;;15.71;nan;101779.63;5046478;28;20035;-82
2023/06/03 07:18:09;;;;;;;2.03;0.93;;;;;;;16.52;nan;101764.22;5102504;28;20395;-84
2023/06/03 07:20:40;;;;;;;2.28;1.17;;;;;;;16.10;nan;101763.56;5086524;28;20364;-83
2023/06/03 07:23:19;;;;;;;1.27;1.00;;;;;;;15.65;nan;101763.81;5068632;28;20040;-84
2023/06/03 07:25:47;;;;;;;3.05;1.20;;;;;;;16.10;nan;101768.91;5068561;27;20028;-82
2023/06/03 07:28:20;;;;;;;1.85;1.20;;;;;;;16.71;nan;101764.63;5070160;28;20050;-83
2023/06/03 07:30:49;;;;;;;1.83;1.20;;;;;;;16.94;nan;101761.28;5066008;28;20039;-84
2023/06/03 07:33:26;;;;;;;5.90;1.90;;;;;;;17.08;nan;101756.44;5061538;28;20032;-85
2023/06/03 07:35:57;;;;;;;2.50;1.40;;;;;;;17.62;nan;101770.78;5069406;28;20036;-83
2023/06/03 07:38:37;;;;;;;1.98;1.25;;;;;;;16.87;nan;101759.72;5075065;28;20066;-84
2023/06/03 07:41:05;;;;;;;2.33;1.23;;;;;;;16.81;nan;101759.88;5080587;28;20042;-83
2023/06/03 07:43:33;;;;;;;549.70;85.75;;;;;;;17.48;nan;101767.66;5065375;28;20042;-83
2023/06/03 07:46:03;;;;;;;35.53;6.32;;;;;;;17.75;nan;101763.28;5081173;28;20048;-84
2023/06/03 07:48:30;;;;;;;3.03;1.40;;;;;;;18.04;nan;101760.50;5073110;28;20143;-84
2023/06/03 07:50:57;;;;;;;2.63;1.05;;;;;;;17.70;nan;101758.94;5056477;28;20059;-83
2023/06/03 07:53:25;;;;;;;3.92;1.40;;;;;;;17.98;nan;101755.34;5066562;28;20044;-83
2023/06/03 07:55:52;;;;;;;3.20;1.08;;;;;;;18.14;nan;101756.56;5066985;28;20046;-83
2023/06/03 07:58:19;;;;;;;2.33;1.30;;;;;;;18.45;nan;101751.03;5089809;28;20028;-82
2023/06/03 08:00:50;;;;;;;3.97;1.08;;;;;;;18.64;nan;101751.22;5082476;28;20044;-84
2023/06/03 08:03:18;;;;;;;17.42;2.55;;;;;;;19.01;nan;101753.47;5087643;28;20033;-83
2023/06/03 08:05:47;;;;;;;5.13;1.60;;;;;;;18.82;nan;101741.69;5088226;28;20036;-82
2023/06/03 08:08:16;;;;;;;3.30;1.58;;;;;;;19.21;nan;101749.13;5061542;28;20035;-82
2023/06/03 08:10:45;;;;;;;2.13;1.30;;;;;;;19.49;nan;101740.84;5068028;28;20035;-81
2023/06/03 08:13:13;;;;;;;3.15;1.50;;;;;;;18.36;nan;101742.47;5070498;28;20036;-82
2023/06/03 08:15:40;;;;;;;2.40;1.10;;;;;;;17.59;nan;101754.84;5065101;28;20054;-81
2023/06/03 08:18:08;;;;;;;3.60;1.35;;;;;;;17.77;nan;101748.94;5088602;28;20035;-81
2023/06/03 08:20:36;;;;;;;1.05;0.90;;;;;;;17.97;nan;101751.81;5067248;28;20057;-81
2023/06/03 08:23:04;;;;;;;1.70;1.00;;;;;;;18.45;nan;101747.50;5082644;28;20085;-82
2023/06/03 08:25:31;;;;;;;2.53;1.25;;;;;;;18.17;nan;101750.28;5070478;28;20042;-82
2023/06/03 08:27:58;;;;;;;1.77;1.02;;;;;;;18.27;nan;101743.66;5068075;28;20032;-82
2023/06/03 08:30:25;;;;;;;3.22;1.10;;;;;;;18.31;nan;101745.28;5063774;28;20043;-82
2023/06/03 08:32:52;;;;;;;3.20;1.20;;;;;;;18.50;nan;101750.88;5068166;28;20040;-82
2023/06/03 08:35:20;;;;;;;1.20;1.02;;;;;;;18.53;nan;101745.41;5080940;28;20066;-83
2023/06/03 08:37:48;;;;;;;1.17;1.00;;;;;;;18.75;nan;101742.84;5068020;28;20038;-82
2023/06/03 08:40:21;;;;;;;27.33;4.30;;;;;;;18.68;nan;101752.91;5085345;28;20303;-83
2023/06/03 08:42:48;;;;;;;2.22;1.20;;;;;;;18.88;nan;101748.63;5080726;28;20039;-82
2023/06/03 08:45:20;;;;;;;3.90;1.10;;;;;;;19.29;nan;101752.38;5079806;28;20047;-84
2023/06/03 08:48:06;;;;;;;1.95;1.30;;;;;;;19.71;nan;101748.94;5067499;28;20066;-82
2023/06/03 08:50:35;;;;;;;1.65;1.08;;;;;;;19.68;nan;101745.47;5080669;28;20028;-83
2023/06/03 08:53:08;;;;;;;1.50;1.10;;;;;;;19.98;nan;101745.09;5057030;28;20519;-83
2023/06/03 08:55:38;;;;;;;2.03;1.13;;;;;;;20.35;nan;101735.47;5087135;28;20649;-82
2023/06/03 08:58:15;;;;;;;2.00;1.10;;;;;;;20.12;nan;101737.34;5067300;28;20388;-82
2023/06/03 09:00:51;;;;;;;3.35;1.35;;;;;;;20.39;nan;101734.38;5064197;28;20040;-84
2023/06/03 09:03:18;;;;;;;6.32;1.75;;;;;;;20.28;nan;101728.63;5094638;28;20036;-83
2023/06/03 09:05:45;;;;;;;4.05;1.27;;;;;;;20.54;nan;101731.06;5061932;28;20063;-81
2023/06/03 09:08:13;;;;;;;6.03;1.98;;;;;;;20.40;nan;101726.25;5078133;28;20036;-83
2023/06/03 09:10:41;;;;;;;4.65;1.30;;;;;;;20.13;nan;101731.03;5081047;28;20051;-82
2023/06/03 09:13:09;;;;;;;1.33;1.00;;;;;;;19.91;nan;101740.94;5082035;28;20042;-83
2023/06/03 09:15:36;;;;;;;10.60;2.17;;;;;;;20.20;nan;101729.84;5092316;28;20050;-82
2023/06/03 09:18:04;;;;;;;17.88;2.65;;;;;;;19.95;nan;101738.06;5074225;28;20043;-82
2023/06/03 09:20:31;;;;;;;53.88;6.53;;;;;;;19.28;nan;101731.88;5066538;28;20040;-83
2023/06/03 09:22:59;;;;;;;2.35;0.93;;;;;;;19.40;nan;101731.38;5073315;28;20130;-83
2023/06/03 09:25:26;;;;;;;2.08;1.20;;;;;;;19.50;nan;101716.66;5074494;28;20525;-82
2023/06/03 09:27:53;;;;;;;2.22;1.00;;;;;;;18.78;nan;101721.31;5082599;28;20042;-82
2023/06/03 09:30:21;;;;;;;3.03;1.48;;;;;;;18.82;nan;101712.22;5065669;28;20027;-83
2023/06/03 09:32:49;;;;;;;1255.60;230.82;;;;;;;19.70;nan;101715.03;5070724;28;20124;-82
2023/06/03 09:35:19;;;;;;;7.28;1.77;;;;;;;19.35;nan;101714.63;5082082;28;20039;-83
2023/06/03 09:37:59;;;;;;;2.90;1.10;;;;;;;19.02;nan;101708.81;5074787;28;20032;-83
2023/06/03 09:40:27;;;;;;;2.55;1.05;;;;;;;19.26;nan;101715.88;5054631;28;20075;-83
2023/06/03 09:42:54;;;;;;;2.75;1.20;;;;;;;19.67;nan;101711.53;5076815;28;20032;-84
2023/06/03 09:45:29;;;;;;;1.77;1.25;;;;;;;20.07;nan;101714.31;5070817;28;20043;-82
2023/06/03 09:47:58;;;;;;;2.10;1.13;;;;;;;19.42;nan;101710.75;5092388;28;20054;-81
2023/06/03 09:50:29;;;;;;;1.75;1.48;;;;;;;20.02;nan;101711.84;5055501;28;20066;-82
2023/06/03 09:52:57;;;;;;;22.15;4.03;;;;;;;20.51;nan;101710.59;5058927;28;20058;-84
2023/06/03 09:55:32;;;;;;;3.53;1.15;;;;;;;20.69;nan;101703.53;5062558;28;20047;-82
2023/06/03 09:58:04;;;;;;;3.50;1.00;;;;;;;20.50;nan;101707.97;5074851;28;20039;-83
2023/06/03 10:00:33;;;;;;;2.95;1.45;;;;;;;20.59;nan;101706.66;5094118;28;20036;-80
2023/06/03 10:03:16;;;;;;;1.70;0.93;;;;;;;20.64;nan;101710.91;5068952;28;20142;-82
2023/06/03 10:05:47;;;;;;;2.53;1.00;;;;;;;20.99;nan;101706.56;5089612;28;20142;-82
2023/06/03 10:08:27;;;;;;;3.40;1.20;;;;;;;20.32;nan;101716.81;5052034;28;20127;-83
2023/06/03 10:10:55;;;;;;;2.03;1.00;;;;;;;20.96;nan;101712.09;5066158;28;20104;-83
2023/06/03 10:13:23;;;;;;;1.88;1.27;;;;;;;20.39;nan;101715.59;5053936;28;20416;-82
2023/06/03 10:15:54;;;;;;;3.20;1.38;;;;;;;20.96;nan;101709.41;5064043;28;20568;-80
2023/06/03 10:18:39;;;;;;;1.70;1.08;;;;;;;21.30;nan;101700.63;5059466;28;20139;-80
2023/06/03 10:21:12;;;;;;;2.88;1.20;;;;;;;20.62;nan;101706.56;5069320;28;20050;-82
2023/06/03 10:23:41;;;;;;;8.05;1.52;;;;;;;20.70;nan;101705.25;5075329;28;20111;-81
2023/06/03 10:26:08;;;;;;;2.45;1.10;;;;;;;21.18;nan;101694.94;5069024;28;20029;-81
2023/06/03 10:28:37;;;;;;;2.97;1.35;;;;;;;21.61;nan;101689.25;5087180;28;20059;-81
2023/06/03 10:31:05;;;;;;;0.95;0.80;;;;;;;21.78;nan;101691.09;5048755;28;20034;-81
2023/06/03 10:33:33;;;;;;;3.38;1.27;;;;;;;21.58;nan;101693.88;5069930;28;20083;-83
2023/06/03 10:36:04;;;;;;;2.35;1.10;;;;;;;21.03;nan;101700.13;5075100;28;20044;-82
2023/06/03 10:38:32;;;;;;;1.42;1.00;;;;;;;21.74;nan;101684.09;5078124;28;20038;-81
2023/06/03 10:41:01;;;;;;;1.92;1.15;;;;;;;21.78;nan;101693.78;5093865;28;20678;-84
2023/06/03 10:43:30;;;;;;;1.88;1.27;;;;;;;20.89;nan;101690.97;5061513;28;20039;-80
2023/06/03 10:45:58;;;;;;;1.90;1.20;;;;;;;20.91;nan;101686.38;5087094;28;20146;-82
2023/06/03 10:48:28;;;;;;;3.35;1.20;;;;;;;21.45;nan;101671.28;5076476;28;20041;-82
2023/06/03 10:51:07;;;;;;;2.92;1.13;;;;;;;20.86;nan;101673.19;5059428;28;20157;-82
2023/06/03 10:54:22;;;;;;;1.85;1.00;;;;;;;20.22;nan;101663.53;5093415;28;20046;-83
2023/06/03 10:57:05;;;;;;;37.17;5.22;;;;;;;20.63;nan;101668.88;5105140;28;20028;-80
2023/06/03 10:59:53;;;;;;;1.53;1.00;;;;;;;19.97;nan;101665.56;5072620;28;20429;-80
2023/06/03 11:02:22;;;;;;;1.15;0.85;;;;;;;20.80;nan;101663.59;5072655;28;20046;-81
2023/06/03 11:05:22;;;;;;;1.65;0.85;;;;;;;20.55;nan;101656.75;5087497;28;20036;-82
2023/06/03 11:07:49;;;;;;;1.58;1.05;;;;;;;20.80;nan;101652.84;5070492;28;20035;-84
2023/06/03 11:10:35;;;;;;;2.45;1.20;;;;;;;20.96;nan;101665.56;5061748;28;20038;-82
2023/06/03 11:13:03;;;;;;;1.20;0.82;;;;;;;20.71;nan;101669.41;5087664;28;20051;-84
2023/06/03 11:16:02;;;;;;;10.57;2.20;;;;;;;21.12;nan;101665.69;5056233;28;20298;-82
2023/06/03 11:18:30;;;;;;;15.65;2.45;;;;;;;21.61;nan;101665.03;5062397;28;20230;-83
2023/06/03 11:20:57;;;;;;;3.05;1.20;;;;;;;21.46;nan;101660.44;5077886;28;20819;-83
2023/06/03 11:23:44;;;;;;;2.55;1.40;;;;;;;19.94;nan;101660.34;5072695;28;20043;-84
2023/06/03 11:26:32;;;;;;;2.85;1.13;;;;;;;20.61;nan;101660.03;5077122;28;20032;-84
2023/06/03 11:29:06;;;;;;;2.58;1.20;;;;;;;20.08;nan;101662.41;5089087;28;20040;-83
2023/06/03 11:31:37;;;;;;;5.53;1.25;;;;;;;20.31;nan;101656.03;5069249;28;20440;-82
2023/06/03 11:34:21;;;;;;;3.72;1.20;;;;;;;20.44;nan;101650.06;5070250;28;20036;-84
2023/06/03 11:36:53;;;;;;;2.85;1.40;;;;;;;21.02;nan;101658.09;5046997;28;20400;-84
2023/06/03 11:39:21;;;;;;;1.23;1.00;;;;;;;21.57;nan;101646.44;5064889;28;20400;-84
2023/06/03 11:42:08;;;;;;;3.25;1.20;;;;;;;21.91;nan;101646.44;5068924;28;20043;-82
2023/06/03 11:44:37;;;;;;;3.22;1.17;;;;;;;22.16;nan;101643.38;5064799;28;20415;-83
2023/06/03 11:47:04;;;;;;;24.27;4.28;;;;;;;22.02;nan;101650.38;5076936;28;20047;-82
2023/06/03 11:49:36;;;;;;;2.70;1.08;;;;;;;21.70;nan;101647.56;5070828;28;20048;-82
2023/06/03 11:52:05;;;;;;;2.47;1.30;;;;;;;21.93;nan;101646.34;5076639;28;20428;-82
2023/06/03 11:54:32;;;;;;;6.53;3.83;;;;;;;22.24;nan;101647.47;5048852;28;20047;-83
2023/06/03 11:56:59;;;;;;;55.67;44.88;;;;;;;;;;5070784;28;20049;-82
2023/06/03 11:59:33;;;;;;;6.85;5.45;;;;;;;22.05;nan;101645.72;5073198;28;20492;-84